Time;durP1;ratioP1;P1;durP2;ratioP2;P2;SDS_P1;SDS_P2;PMS_P1;PMS_P2;Temp;Humidity;BMP_temperature;BMP_pressure;BME280_temperature;BME280_humidity;BME280_pressure;Samples;Min_cycle;Max_cycle;Signal;HPM_P1;HPM_P2
2021/01/31 00:00:40;;;;;;;19.05;11.45;;;;;;;0.39;98.75;99029.94;4915853;29;20052;-81
2021/01/31 00:03:16;;;;;;;19.00;11.82;;;;;;;0.34;97.98;99036.13;4918594;29;20062;-82
2021/01/31 00:05:44;;;;;;;21.45;12.65;;;;;;;0.34;97.82;99043.06;4917613;29;20095;-82
2021/01/31 00:08:13;;;;;;;20.27;12.23;;;;;;;0.35;98.20;99044.78;4921614;29;20492;-83
2021/01/31 00:10:40;;;;;;;21.88;12.88;;;;;;;0.35;98.18;99050.84;4925457;29;20091;-84
2021/01/31 00:13:09;;;;;;;20.73;11.98;;;;;;;0.32;97.95;99045.72;4906871;29;20071;-82
2021/01/31 00:15:39;;;;;;;19.52;12.48;;;;;;;0.32;97.88;99050.06;4925911;29;20054;-84
2021/01/31 00:18:07;;;;;;;20.05;11.77;;;;;;;0.30;97.75;99050.13;4921001;29;20076;-82
2021/01/31 00:20:35;;;;;;;21.05;12.98;;;;;;;0.24;97.78;99047.69;4921951;29;20052;-84
2021/01/31 00:23:06;;;;;;;21.98;12.30;;;;;;;0.23;97.95;99039.91;4930019;29;20060;-83
2021/01/31 00:25:33;;;;;;;;;;;;;;;0.26;97.61;99045.91;4908129;29;20107;-84
2021/01/31 00:27:59;;;;;;;22.67;13.23;;;;;;;0.30;97.87;99042.31;4910308;29;19937;-82
2021/01/31 00:30:30;;;;;;;22.17;13.30;;;;;;;0.34;97.61;99048.28;4908413;28;852441;-82
2021/01/31 00:32:58;;;;;;;21.48;12.60;;;;;;;0.31;97.85;99049.25;4928441;29;20443;-82
2021/01/31 00:35:28;;;;;;;24.67;13.73;;;;;;;0.26;97.69;99043.28;4929213;29;20119;-83
2021/01/31 00:37:54;;;;;;;26.13;14.35;;;;;;;0.21;97.40;99041.69;4924973;29;20067;-83
2021/01/31 00:40:21;;;;;;;24.15;13.98;;;;;;;0.21;97.89;99046.91;4943000;29;20062;-83
2021/01/31 00:42:48;;;;;;;28.35;14.48;;;;;;;0.24;98.14;99037.28;4925227;29;20497;-84
2021/01/31 00:45:18;;;;;;;24.73;14.80;;;;;;;0.30;98.20;99044.94;4923007;29;20054;-82
2021/01/31 00:47:45;;;;;;;30.20;15.63;;;;;;;0.28;97.38;99041.50;4925836;29;20048;-83
2021/01/31 00:50:20;;;;;;;26.33;14.32;;;;;;;0.28;97.12;99046.72;4942016;29;20048;-84
2021/01/31 00:52:47;;;;;;;26.92;15.63;;;;;;;0.30;97.30;99050.13;4935598;29;20047;-83
2021/01/31 00:55:14;;;;;;;25.55;14.23;;;;;;;0.29;97.09;99060.59;4920710;29;20421;-82
2021/01/31 00:57:41;;;;;;;29.30;15.82;;;;;;;0.31;96.79;99058.78;4916803;29;20066;-82
2021/01/31 01:00:21;;;;;;;27.52;15.38;;;;;;;0.32;97.30;99058.72;4938391;29;20055;-83
2021/01/31 01:02:48;;;;;;;30.70;15.90;;;;;;;0.33;96.61;99052.63;4941488;29;20055;-83
2021/01/31 01:05:16;;;;;;;22.02;12.20;;;;;;;0.41;96.15;99054.19;4941977;29;20055;-81
2021/01/31 01:07:44;;;;;;;28.13;14.85;;;;;;;0.34;96.04;99043.91;4932356;29;20044;-82
2021/01/31 01:10:12;;;;;;;27.38;15.98;;;;;;;0.31;96.48;99054.44;4950001;29;20050;-82
2021/01/31 01:12:39;;;;;;;27.75;15.38;;;;;;;0.28;96.70;99056.28;4943155;29;20056;-84
2021/01/31 01:15:08;;;;;;;27.30;15.27;;;;;;;0.25;96.03;99054.59;4952842;29;20065;-82
2021/01/31 01:17:34;;;;;;;27.50;15.75;;;;;;;0.23;96.64;99045.13;4947685;29;20050;-83
2021/01/31 01:20:01;;;;;;;31.13;16.55;;;;;;;0.25;96.59;99052.00;4940159;29;20121;-82
2021/01/31 01:22:27;;;;;;;30.00;17.08;;;;;;;0.29;96.91;99058.84;4921277;29;20143;-82
2021/01/31 01:24:53;;;;;;;33.58;16.75;;;;;;;0.22;97.06;99054.66;4942142;29;20047;-81
2021/01/31 01:27:21;;;;;;;32.83;16.30;;;;;;;0.23;96.81;99061.59;4935466;29;20131;-83
2021/01/31 01:29:48;;;;;;;30.67;17.23;;;;;;;0.22;97.02;99052.06;4934000;29;20176;-82
2021/01/31 01:32:16;;;;;;;31.27;16.88;;;;;;;0.22;96.44;99059.88;4939233;29;20047;-82
2021/01/31 01:34:43;;;;;;;32.38;16.23;;;;;;;0.20;96.53;99061.66;4940053;29;20098;-83
2021/01/31 01:37:10;;;;;;;35.50;17.00;;;;;;;0.19;96.69;99061.69;4913648;29;20059;-82
2021/01/31 01:39:37;;;;;;;31.15;17.30;;;;;;;0.26;96.79;99071.94;4933679;29;20062;-83
2021/01/31 01:42:07;;;;;;;32.90;17.58;;;;;;;0.29;97.24;99071.00;4936850;29;20056;-83
2021/01/31 01:44:34;;;;;;;35.13;17.92;;;;;;;0.30;96.91;99081.38;4934758;29;20058;-83
2021/01/31 01:47:03;;;;;;;32.63;17.13;;;;;;;0.33;96.18;99080.41;4911583;29;20058;-84
2021/01/31 01:49:41;;;;;;;29.52;16.23;;;;;;;0.39;95.86;99077.66;4916711;29;20059;-83
2021/01/31 01:52:32;;;;;;;32.47;16.90;;;;;;;0.48;95.79;99076.53;4921112;29;20058;-83
2021/01/31 01:55:04;;;;;;;36.92;18.13;;;;;;;0.44;95.15;99080.16;4939382;29;20051;-83
2021/01/31 01:57:42;;;;;;;31.73;17.02;;;;;;;0.37;95.19;99082.03;4933168;29;20048;-82
2021/01/31 02:00:10;;;;;;;33.42;17.70;;;;;;;0.30;95.27;99083.97;4941981;29;20122;-83
2021/01/31 02:02:44;;;;;;;34.45;17.50;;;;;;;0.29;95.55;99077.06;4936565;29;20077;-83
2021/01/31 02:05:14;;;;;;;37.88;19.15;;;;;;;0.34;96.14;99069.97;4933572;29;20048;-83
2021/01/31 02:07:43;;;;;;;31.38;17.67;;;;;;;0.24;95.61;99065.91;4937430;29;20054;-82
2021/01/31 02:10:11;;;;;;;39.20;18.75;;;;;;;0.26;95.49;99065.88;4935765;29;20448;-82
2021/01/31 02:12:38;;;;;;;38.17;19.40;;;;;;;0.19;95.53;99070.38;4934525;29;20059;-82
2021/01/31 02:15:07;;;;;;;39.92;19.98;;;;;;;0.18;95.45;99062.59;4934268;29;20040;-82
2021/01/31 02:17:55;;;;;;;34.30;19.02;;;;;;;0.18;95.57;99066.06;4915987;29;20490;-83
2021/01/31 02:21:04;;;;;;;38.10;19.67;;;;;;;0.20;96.06;99066.88;4937139;29;20055;-82
2021/01/31 02:24:08;;;;;;;39.50;19.08;;;;;;;0.20;95.54;99066.88;4938036;29;20076;-82
2021/01/31 02:26:46;;;;;;;37.55;19.60;;;;;;;0.17;95.91;99072.16;4949241;29;20058;-81
2021/01/31 02:29:47;;;;;;;37.47;18.08;;;;;;;0.21;95.62;99073.78;4927851;29;20050;-83
2021/01/31 02:32:45;;;;;;;39.75;19.45;;;;;;;0.19;95.37;99074.72;4941470;29;21132;-83
2021/01/31 02:35:22;;;;;;;40.30;20.05;;;;;;;0.19;95.83;99080.78;4933733;29;20052;-82
2021/01/31 02:38:00;;;;;;;35.78;18.27;;;;;;;0.20;95.83;99077.28;4933282;29;20076;-82
2021/01/31 02:40:56;;;;;;;36.50;18.52;;;;;;;0.25;95.50;99074.56;4933846;29;20134;-82
2021/01/31 02:43:55;;;;;;;37.58;18.85;;;;;;;0.23;95.36;99077.22;4931197;29;20060;-81
2021/01/31 02:46:29;;;;;;;38.40;19.63;;;;;;;0.21;95.54;99080.75;4925822;29;20058;-81
2021/01/31 02:49:13;;;;;;;36.75;18.05;;;;;;;0.20;94.96;99079.88;4939255;29;20062;-82
2021/01/31 02:51:48;;;;;;;42.03;20.23;;;;;;;0.19;94.51;99069.50;4930275;29;20058;-83
2021/01/31 02:54:25;;;;;;;38.72;19.08;;;;;;;0.13;94.18;99074.91;4927023;29;20046;-81
2021/01/31 02:57:17;;;;;;;36.80;19.13;;;;;;;0.10;94.87;99091.44;4938143;29;20114;-84
2021/01/31 02:59:56;;;;;;;36.92;18.48;;;;;;;0.08;94.59;99087.16;4941723;29;20047;-81
2021/01/31 03:02:38;;;;;;;37.17;19.00;;;;;;;0.02;94.65;99079.50;4939038;29;20055;-82
2021/01/31 03:05:12;;;;;;;38.00;18.67;;;;;;;0.03;94.39;99087.28;4943121;29;20059;-82
2021/01/31 03:07:52;;;;;;;37.70;19.27;;;;;;;0.04;94.59;99081.19;4942989;29;20048;-81
2021/01/31 03:10:38;;;;;;;37.00;18.45;;;;;;;-0.01;94.57;99085.66;4926048;29;20054;-82
2021/01/31 03:13:10;;;;;;;35.88;18.08;;;;;;;-0.03;94.56;99084.84;4949180;29;20071;-80
2021/01/31 03:15:45;;;;;;;39.10;18.77;;;;;;;-0.04;93.54;99093.53;4948579;29;20500;-82
2021/01/31 03:18:17;;;;;;;33.00;18.45;;;;;;;-0.05;93.99;99090.09;4945944;29;20357;-81
2021/01/31 03:20:53;;;;;;;37.40;18.73;;;;;;;-0.04;93.60;99089.19;4930820;29;20074;-79
2021/01/31 03:23:32;;;;;;;36.33;18.05;;;;;;;-0.08;94.43;99092.75;4938980;29;20070;-81
2021/01/31 03:26:05;;;;;;;36.83;19.00;;;;;;;-0.14;94.42;99098.09;4938359;29;20043;-80
2021/01/31 03:28:31;;;;;;;39.75;19.58;;;;;;;-0.13;94.52;99091.16;4934083;29;20062;-80
2021/01/31 03:31:01;;;;;;;37.88;18.58;;;;;;;-0.13;94.30;99094.59;4934444;29;20046;-81
2021/01/31 03:33:55;;;;;;;;;;;;;;;-0.11;94.50;99104.97;4936049;29;20043;-82
2021/01/31 03:36:25;;;;;;;35.92;17.88;;;;;;;-0.22;93.79;99109.59;4939615;29;19931;-80
2021/01/31 03:38:53;;;;;;;35.30;16.92;;;;;;;-0.24;93.42;99113.97;4939456;29;20241;-80
2021/01/31 03:41:23;;;;;;;36.15;18.17;;;;;;;-0.22;93.56;99109.59;4941026;29;20051;-81
2021/01/31 03:43:50;;;;;;;39.45;18.08;;;;;;;-0.20;93.92;99110.41;4940411;29;20052;-83
2021/01/31 03:46:24;;;;;;;37.72;18.70;;;;;;;-0.20;93.57;99113.03;4931404;29;20048;-83
2021/01/31 03:48:58;;;;;;;34.03;17.55;;;;;;;-0.19;91.99;99107.78;4950626;29;20481;-83
2021/01/31 03:51:26;;;;;;;31.38;15.68;;;;;;;-0.16;91.49;99099.06;4926474;29;20044;-83
2021/01/31 03:53:52;;;;;;;30.10;15.18;;;;;;;-0.16;90.96;99107.69;4931806;29;20067;-83
2021/01/31 03:56:28;;;;;;;32.63;15.95;;;;;;;-0.15;89.47;99112.00;4938260;29;20044;-82
2021/01/31 03:58:58;;;;;;;29.52;15.45;;;;;;;-0.11;88.78;99115.38;4944300;29;20051;-82
2021/01/31 04:01:27;;;;;;;28.75;15.05;;;;;;;-0.13;87.32;99104.16;4937538;29;20042;-84
2021/01/31 04:04:09;;;;;;;33.40;15.00;;;;;;;-0.17;87.26;99108.59;4956933;29;20198;-82
2021/01/31 04:06:38;;;;;;;25.95;14.00;;;;;;;-0.15;87.11;99103.34;4950452;29;20044;-82
2021/01/31 04:09:07;;;;;;;27.02;14.18;;;;;;;-0.13;87.61;99101.56;4955670;29;20086;-81
2021/01/31 04:11:35;;;;;;;28.83;14.57;;;;;;;-0.10;87.26;99104.94;4932116;29;20052;-82
2021/01/31 04:14:09;;;;;;;25.73;13.38;;;;;;;-0.12;86.33;99105.88;4945966;29;20054;-84
2021/01/31 04:16:42;;;;;;;24.33;13.32;;;;;;;-0.14;86.28;99108.50;4925618;29;20048;-84
2021/01/31 04:19:10;;;;;;;27.30;14.43;;;;;;;-0.14;86.71;99118.91;4933492;29;20048;-84
2021/01/31 04:21:36;;;;;;;26.70;14.23;;;;;;;-0.15;86.02;99113.75;4928939;29;20055;-82
2021/01/31 04:24:03;;;;;;;27.20;14.32;;;;;;;-0.12;86.73;99119.72;4944239;29;20056;-84
2021/01/31 04:26:29;;;;;;;26.98;14.38;;;;;;;-0.05;87.22;99116.09;4930327;29;20063;-83
2021/01/31 04:28:55;;;;;;;24.55;13.68;;;;;;;-0.06;87.32;99119.59;4953021;29;20055;-82
2021/01/31 04:31:22;;;;;;;25.30;13.68;;;;;;;-0.06;85.95;99110.94;4944769;29;20063;-83
2021/01/31 04:33:48;;;;;;;24.42;14.05;;;;;;;-0.13;86.17;99114.56;4939663;29;20048;-83
2021/01/31 04:36:14;;;;;;;23.90;13.68;;;;;;;-0.11;86.04;99103.22;4922017;29;20406;-83
2021/01/31 04:38:41;;;;;;;25.38;13.55;;;;;;;-0.08;85.86;99110.97;4935309;29;20094;-82
2021/01/31 04:41:08;;;;;;;22.80;12.55;;;;;;;-0.08;84.84;99115.31;4942098;29;20070;-82
2021/01/31 04:43:35;;;;;;;24.05;12.88;;;;;;;-0.14;84.90;99118.06;4925938;29;20087;-83
2021/01/31 04:46:02;;;;;;;22.77;12.88;;;;;;;-0.16;85.35;99118.09;4939370;29;20051;-83
2021/01/31 04:48:41;;;;;;;23.70;12.50;;;;;;;-0.15;85.40;99118.94;4941065;29;20047;-81
2021/01/31 04:51:14;;;;;;;23.83;12.85;;;;;;;-0.11;86.01;99126.66;4939801;29;20067;-83
2021/01/31 04:54:05;;;;;;;25.23;13.50;;;;;;;-0.07;85.63;99130.03;4920996;29;20067;-83
2021/01/31 04:56:41;;;;;;;24.80;13.48;;;;;;;-0.10;85.39;99128.38;4951780;29;20047;-81
2021/01/31 04:59:30;;;;;;;22.95;13.05;;;;;;;-0.10;84.94;99117.09;4957107;29;20048;-81
2021/01/31 05:02:14;;;;;;;22.00;12.25;;;;;;;-0.19;84.50;99123.41;4957401;28;20039;-84
2021/01/31 05:04:54;;;;;;;22.92;12.05;;;;;;;-0.26;84.29;99128.75;4951950;29;20095;-82
2021/01/31 05:07:26;;;;;;;24.95;13.23;;;;;;;-0.27;84.88;99132.25;4958576;29;20046;-83
2021/01/31 05:09:53;;;;;;;19.90;11.75;;;;;;;-0.31;84.95;99128.00;4952423;29;20075;-84
2021/01/31 05:12:37;;;;;;;22.40;12.52;;;;;;;-0.28;84.98;99136.59;4936722;29;20054;-84
2021/01/31 05:15:20;;;;;;;21.92;11.88;;;;;;;-0.31;84.71;99138.41;4939772;29;20120;-83
2021/01/31 05:17:49;;;;;;;22.35;12.68;;;;;;;-0.38;84.40;99135.97;4950959;28;20036;-81
2021/01/31 05:20:24;;;;;;;22.00;12.27;;;;;;;-0.40;84.80;99142.94;4949708;29;20055;-83
2021/01/31 05:22:55;;;;;;;23.55;13.05;;;;;;;-0.38;84.95;99140.31;4940871;29;20052;-82
2021/01/31 05:25:26;;;;;;;16.73;9.93;;;;;;;-0.36;85.53;99142.00;4924752;29;20066;-83
2021/01/31 05:27:58;;;;;;;21.48;12.07;;;;;;;-0.31;85.68;99139.25;4925387;29;20095;-83
2021/01/31 05:30:29;;;;;;;21.73;11.88;;;;;;;-0.24;85.95;99143.44;4937510;29;20453;-81
2021/01/31 05:33:08;;;;;;;18.85;11.20;;;;;;;-0.19;85.81;99145.94;4920670;29;20077;-83
2021/01/31 05:36:05;;;;;;;24.70;12.75;;;;;;;-0.20;84.40;99142.50;4937190;29;20055;-80
2021/01/31 05:38:34;;;;;;;21.25;12.38;;;;;;;-0.22;84.75;99140.81;4928569;29;20085;-81
2021/01/31 05:41:23;;;;;;;22.85;12.23;;;;;;;-0.19;85.03;99151.16;4928346;29;20063;-81
2021/01/31 05:44:02;;;;;;;23.23;12.52;;;;;;;-0.20;84.87;99154.66;4944962;29;20073;-83
2021/01/31 05:46:47;;;;;;;21.48;11.48;;;;;;;-0.16;85.18;99146.72;4946583;29;20054;-80
2021/01/31 05:49:32;;;;;;;21.58;12.10;;;;;;;-0.13;85.00;99162.25;4946210;29;20051;-82
2021/01/31 05:51:59;;;;;;;24.80;11.98;;;;;;;-0.18;84.98;99158.06;4950817;29;20051;-82
2021/01/31 05:54:36;;;;;;;22.42;12.02;;;;;;;-0.16;85.33;99151.09;4923527;29;20445;-82
2021/01/31 05:57:04;;;;;;;21.35;12.27;;;;;;;-0.14;84.59;99159.69;4931731;29;20051;-84
2021/01/31 05:59:41;;;;;;;23.00;12.18;;;;;;;-0.14;84.93;99160.53;4948308;29;20103;-80
2021/01/31 06:02:08;;;;;;;20.40;11.80;;;;;;;-0.14;85.00;99159.69;4926439;29;20055;-82
2021/01/31 06:04:35;;;;;;;22.15;12.43;;;;;;;-0.16;84.91;99161.50;4946606;29;20190;-81
2021/01/31 06:07:12;;;;;;;23.27;12.75;;;;;;;-0.16;84.53;99156.28;4946976;29;20047;-84
2021/01/31 06:09:52;;;;;;;23.90;12.45;;;;;;;-0.21;83.25;99156.38;4952254;29;20054;-82
2021/01/31 06:12:21;;;;;;;23.63;12.40;;;;;;;-0.24;84.03;99166.00;4934458;29;20047;-81
2021/01/31 06:14:58;;;;;;;21.02;12.13;;;;;;;-0.26;83.77;99166.03;4942702;29;20048;-83
2021/01/31 06:17:30;;;;;;;21.30;12.15;;;;;;;-0.24;84.44;99168.59;4950783;29;20043;-81
2021/01/31 06:20:17;;;;;;;24.27;12.73;;;;;;;-0.22;83.31;99178.09;4945933;29;20047;-82
2021/01/31 06:22:46;;;;;;;23.15;12.82;;;;;;;-0.26;83.59;99181.66;4954398;29;20062;-82
2021/01/31 06:25:38;;;;;;;19.85;12.05;;;;;;;-0.25;82.75;99177.28;4955427;29;20048;-81
2021/01/31 06:28:10;;;;;;;20.73;11.40;;;;;;;-0.26;83.16;99179.03;4941161;29;20036;-81
2021/01/31 06:31:14;;;;;;;21.15;11.68;;;;;;;-0.20;83.55;99185.88;4953218;29;20099;-81
2021/01/31 06:33:43;;;;;;;20.17;11.07;;;;;;;-0.18;83.07;99194.50;4958161;29;20063;-82
2021/01/31 06:36:21;;;;;;;21.45;12.30;;;;;;;-0.23;82.08;99194.59;4960053;29;20038;-82
2021/01/31 06:39:06;;;;;;;21.58;11.98;;;;;;;-0.20;82.03;99196.28;4955667;29;20082;-82
2021/01/31 06:42:03;;;;;;;23.45;12.65;;;;;;;-0.19;82.39;99200.59;4955317;29;20047;-82
2021/01/31 06:44:42;;;;;;;21.90;11.52;;;;;;;-0.25;81.72;99192.91;4960611;29;20055;-83
2021/01/31 06:47:47;;;;;;;25.80;12.32;;;;;;;-0.23;82.25;99201.53;4953373;29;20063;-81
2021/01/31 06:50:24;;;;;;;21.67;11.65;;;;;;;-0.20;82.71;99189.31;4917702;29;20083;-81
2021/01/31 06:53:42;;;;;;;20.65;11.57;;;;;;;-0.17;81.74;99196.22;4935576;29;20090;-81
2021/01/31 06:56:54;;;;;;;19.77;11.20;;;;;;;-0.22;80.55;99203.25;4882002;29;20187;-81
2021/01/31 06:59:55;;;;;;;20.35;11.60;;;;;;;-0.28;80.36;99193.81;4877308;29;20465;-81
2021/01/31 07:02:44;;;;;;;20.52;12.10;;;;;;;-0.36;80.49;99201.81;4916867;29;20066;-80
2021/01/31 07:05:41;;;;;;;21.38;12.23;;;;;;;-0.41;80.52;99206.25;4937477;29;20055;-82
2021/01/31 07:08:29;;;;;;;21.67;11.95;;;;;;;-0.43;80.00;99208.03;4936847;29;20054;-81
2021/01/31 07:11:02;;;;;;;23.27;11.82;;;;;;;-0.47;80.04;99211.56;4936483;29;20048;-81
2021/01/31 07:13:38;;;;;;;23.38;12.07;;;;;;;-0.46;80.85;99212.44;4939661;29;20071;-82
2021/01/31 07:16:04;;;;;;;21.63;11.88;;;;;;;-0.43;81.76;99205.44;4940452;29;20174;-82
2021/01/31 07:18:36;;;;;;;23.02;12.55;;;;;;;-0.36;81.63;99217.44;4940502;29;20074;-81
2021/01/31 07:21:16;;;;;;;20.42;11.32;;;;;;;-0.33;80.41;99215.66;4939959;29;20056;-81
2021/01/31 07:23:45;;;;;;;22.08;11.85;;;;;;;-0.28;81.52;99219.84;4941407;29;20062;-83
2021/01/31 07:26:35;;;;;;;21.33;11.65;;;;;;;-0.20;80.95;99227.50;4954313;29;20043;-82
2021/01/31 07:29:07;;;;;;;19.50;11.45;;;;;;;-0.21;80.31;99236.19;4957513;29;20062;-81
2021/01/31 07:31:48;;;;;;;23.10;12.10;;;;;;;-0.20;79.86;99232.69;4948143;29;20062;-83
2021/01/31 07:34:53;;;;;;;21.52;11.90;;;;;;;-0.18;80.44;99236.97;4941734;29;20123;-82
2021/01/31 07:37:20;;;;;;;21.42;12.48;;;;;;;-0.23;79.25;99223.22;4912144;29;20037;-83
2021/01/31 07:40:07;;;;;;;21.23;11.48;;;;;;;-0.26;79.67;99227.63;4910221;29;20048;-83
2021/01/31 07:42:36;;;;;;;20.70;11.32;;;;;;;-0.27;79.17;99228.50;4901129;29;20052;-83
2021/01/31 07:45:16;;;;;;;20.27;12.48;;;;;;;-0.29;80.15;99232.88;4882848;29;20067;-82
2021/01/31 07:47:43;;;;;;;20.05;11.77;;;;;;;-0.27;80.85;99231.97;4894640;29;20056;-82
2021/01/31 07:50:15;;;;;;;20.52;11.27;;;;;;;-0.10;80.67;99237.66;4892630;29;20049;-83
2021/01/31 07:52:53;;;;;;;;;;;;;;;-0.03;79.57;99239.25;4933264;29;20066;-83
2021/01/31 07:55:42;;;;;;;19.10;10.50;;;;;;;-0.03;79.58;99241.84;4940336;29;20403;-83
2021/01/31 07:58:20;;;;;;;20.17;11.00;;;;;;;-0.01;79.57;99241.81;4936042;29;20103;-84
2021/01/31 08:00:53;;;;;;;22.17;12.00;;;;;;;-0.06;78.58;99235.84;4941241;29;20052;-83
2021/01/31 08:03:35;;;;;;;20.42;11.07;;;;;;;-0.16;78.89;99223.94;4918950;29;20146;-83
2021/01/31 08:06:04;;;;;;;20.40;11.90;;;;;;;-0.04;79.45;99231.47;4941473;29;20078;-82
2021/01/31 08:08:39;;;;;;;20.67;11.95;;;;;;;0.07;79.99;99231.22;4937702;29;20048;-82
2021/01/31 08:11:17;;;;;;;23.38;12.15;;;;;;;0.18;79.74;99235.25;4935858;29;20051;-83
2021/01/31 08:13:48;;;;;;;20.30;10.88;;;;;;;0.22;78.95;99239.50;4941066;29;20107;-82
2021/01/31 08:16:40;;;;;;;22.50;11.65;;;;;;;0.24;79.32;99245.53;4936703;29;20395;-82
2021/01/31 08:19:09;;;;;;;21.75;11.48;;;;;;;0.30;79.34;99245.41;4937408;29;20052;-82
2021/01/31 08:21:50;;;;;;;19.85;11.00;;;;;;;0.34;78.60;99240.97;4941576;29;20051;-83
2021/01/31 08:24:57;;;;;;;24.23;12.45;;;;;;;0.45;78.50;99238.97;4939048;29;20062;-83
2021/01/31 08:27:42;;;;;;;20.02;10.95;;;;;;;0.52;77.08;99248.34;4936388;29;20069;-83
2021/01/31 08:30:23;;;;;;;19.98;11.15;;;;;;;0.44;77.06;99246.81;4933804;29;20478;-82
2021/01/31 08:32:58;;;;;;;20.88;11.40;;;;;;;0.50;77.90;99242.31;4937733;29;20160;-82
2021/01/31 08:35:26;;;;;;;20.80;11.00;;;;;;;0.61;77.73;99242.06;4934380;29;20058;-83
2021/01/31 08:38:16;;;;;;;23.00;12.15;;;;;;;0.78;77.56;99242.47;4934222;29;20103;-82
2021/01/31 08:41:04;;;;;;;18.95;11.68;;;;;;;0.86;75.98;99240.50;4939666;29;20086;-82
2021/01/31 08:43:52;;;;;;;21.55;11.15;;;;;;;0.73;74.60;99236.53;4919742;29;20066;-82
2021/01/31 08:46:32;;;;;;;19.83;11.30;;;;;;;0.70;76.19;99244.41;4939872;29;20086;-82
2021/01/31 08:49:14;;;;;;;20.60;11.27;;;;;;;0.79;76.73;99240.72;4939594;29;20141;-80
2021/01/31 08:51:54;;;;;;;17.90;11.25;;;;;;;0.89;75.87;99248.25;4939040;29;20055;-79
2021/01/31 08:54:23;;;;;;;20.60;11.55;;;;;;;0.93;74.57;99247.28;4941340;29;20123;-79
2021/01/31 08:57:14;;;;;;;20.48;11.40;;;;;;;0.99;75.82;99246.25;4942834;29;20802;-79
2021/01/31 08:59:47;;;;;;;20.00;11.13;;;;;;;0.99;75.46;99234.06;4950439;29;20047;-80
2021/01/31 09:02:19;;;;;;;18.17;11.35;;;;;;;1.05;75.28;99228.72;4948862;29;20059;-81
2021/01/31 09:04:55;;;;;;;22.13;12.02;;;;;;;0.99;74.14;99222.78;4931950;29;20106;-80
2021/01/31 09:07:33;;;;;;;20.88;11.45;;;;;;;0.89;74.89;99224.81;4934807;29;20768;-81
2021/01/31 09:10:11;;;;;;;20.50;11.05;;;;;;;0.80;75.75;99219.81;4932526;29;20414;-81
2021/01/31 09:12:38;;;;;;;20.17;11.50;;;;;;;0.76;75.62;99209.53;4932783;29;20714;-83
2021/01/31 09:15:11;;;;;;;17.50;11.05;;;;;;;0.77;75.29;99219.06;4938153;29;20062;-80
2021/01/31 09:17:38;;;;;;;18.73;11.15;;;;;;;0.77;76.24;99225.13;4934753;29;20050;-83
2021/01/31 09:20:08;;;;;;;20.73;11.57;;;;;;;0.77;76.76;99230.34;4937163;29;20056;-83
2021/01/31 09:22:38;;;;;;;19.98;11.15;;;;;;;0.89;77.04;99235.22;4936172;29;20051;-84
2021/01/31 09:25:07;;;;;;;18.95;11.05;;;;;;;1.03;76.97;99238.31;4920469;29;20078;-83
2021/01/31 09:27:46;;;;;;;20.92;11.30;;;;;;;1.06;76.88;99232.19;4924131;29;20055;-83
2021/01/31 09:30:17;;;;;;;20.55;11.52;;;;;;;1.17;76.75;99242.31;4946805;29;20067;-83
2021/01/31 09:32:49;;;;;;;20.42;11.43;;;;;;;1.22;76.53;99248.25;4949505;29;20039;-84
2021/01/31 09:35:25;;;;;;;19.58;10.93;;;;;;;1.30;75.71;99260.19;4923814;29;20078;-83
2021/01/31 09:37:55;;;;;;;19.98;11.80;;;;;;;1.30;76.35;99256.72;4919477;29;20056;-81
2021/01/31 09:40:21;;;;;;;18.65;10.52;;;;;;;1.29;75.83;99265.44;4922154;29;20146;-82
2021/01/31 09:42:48;;;;;;;20.30;11.88;;;;;;;1.39;75.36;99267.75;4940674;29;20331;-82
2021/01/31 09:45:41;;;;;;;16.75;10.77;;;;;;;1.38;75.49;99265.19;4941346;29;20143;-84
2021/01/31 09:48:11;;;;;;;19.63;11.27;;;;;;;1.36;75.52;99254.81;4934004;29;20052;-81
2021/01/31 09:50:38;;;;;;;22.05;12.85;;;;;;;1.29;75.96;99232.38;4933189;29;20105;-82
2021/01/31 09:53:06;;;;;;;22.17;11.85;;;;;;;1.43;75.30;99252.84;4939236;29;20047;-80
2021/01/31 09:55:32;;;;;;;19.70;11.60;;;;;;;1.51;73.96;99252.66;4944837;29;20123;-83
2021/01/31 09:57:59;;;;;;;20.70;10.95;;;;;;;1.42;74.06;99253.75;4949350;28;20039;-80
2021/01/31 10:00:28;;;;;;;18.52;11.07;;;;;;;1.35;74.38;99250.47;4940595;29;20070;-80
2021/01/31 10:03:05;;;;;;;22.53;11.17;;;;;;;1.28;74.70;99245.47;4940544;29;20039;-84
2021/01/31 10:05:35;;;;;;;19.27;11.50;;;;;;;1.46;75.92;99247.56;4936305;29;20100;-84
2021/01/31 10:08:07;;;;;;;20.92;11.90;;;;;;;1.61;75.46;99239.28;4938528;29;20046;-84
2021/01/31 10:10:41;;;;;;;20.08;12.00;;;;;;;1.76;74.46;99238.84;4953851;28;20036;-83
2021/01/31 10:13:18;;;;;;;19.90;11.48;;;;;;;1.76;73.78;99245.81;4953972;29;20031;-81
2021/01/31 10:15:56;;;;;;;21.95;12.18;;;;;;;1.81;74.35;99232.63;4953070;29;20062;-80
2021/01/31 10:18:30;;;;;;;19.10;11.00;;;;;;;1.88;73.78;99242.00;4917950;29;20059;-83
2021/01/31 10:21:36;;;;;;;20.38;12.20;;;;;;;1.85;73.12;99240.34;4935677;29;20087;-83
2021/01/31 10:24:05;;;;;;;22.45;11.68;;;;;;;1.68;73.45;99242.59;4942142;29;20059;-82
2021/01/31 10:26:33;;;;;;;21.92;12.13;;;;;;;1.70;74.69;99236.44;4922990;29;20062;-84
2021/01/31 10:29:03;;;;;;;20.45;11.43;;;;;;;1.81;75.24;99237.84;4922790;29;20052;-83
2021/01/31 10:31:34;;;;;;;21.58;12.50;;;;;;;1.81;74.65;99227.41;4941743;29;20062;-81
2021/01/31 10:34:05;;;;;;;19.95;11.82;;;;;;;1.90;73.89;99234.94;4921356;29;20107;-80
2021/01/31 10:36:48;;;;;;;20.77;11.95;;;;;;;1.85;74.07;99229.91;4920700;29;20055;-82
2021/01/31 10:39:25;;;;;;;20.27;12.32;;;;;;;1.79;73.56;99237.03;4943145;29;20107;-82
2021/01/31 10:41:58;;;;;;;20.98;12.00;;;;;;;1.74;74.62;99232.81;4946719;29;20079;-85
2021/01/31 10:44:27;;;;;;;22.63;12.52;;;;;;;1.84;76.08;99240.38;4928937;29;20067;-85
2021/01/31 10:46:55;;;;;;;19.77;11.93;;;;;;;1.93;75.72;99240.94;4944325;29;20063;-83
2021/01/31 10:49:23;;;;;;;19.65;12.15;;;;;;;2.16;78.23;99239.38;4951128;29;20356;-81
2021/01/31 10:51:50;;;;;;;18.42;11.13;;;;;;;2.34;77.12;99226.59;4951544;29;20051;-81
2021/01/31 10:54:20;;;;;;;23.10;12.43;;;;;;;2.28;74.43;99223.31;4931132;29;20070;-82
2021/01/31 10:56:46;;;;;;;22.03;13.03;;;;;;;2.32;73.80;99214.50;4948105;29;20047;-82
2021/01/31 10:59:15;;;;;;;19.83;11.95;;;;;;;2.32;74.24;99219.72;4947162;29;20146;-82
2021/01/31 11:01:43;;;;;;;21.25;12.38;;;;;;;2.19;74.09;99219.25;4932773;29;20157;-81
2021/01/31 11:04:12;;;;;;;19.10;11.93;;;;;;;2.19;73.92;99221.03;4928272;29;20134;-81
2021/01/31 11:06:39;;;;;;;19.13;12.05;;;;;;;2.09;73.33;99213.47;4923073;29;20044;-81
2021/01/31 11:09:10;;;;;;;20.98;12.43;;;;;;;2.02;74.15;99213.72;4920844;29;20051;-81
2021/01/31 11:11:39;;;;;;;20.88;11.88;;;;;;;1.95;73.56;99209.56;4939935;29;20063;-82
2021/01/31 11:14:06;;;;;;;18.95;11.65;;;;;;;1.90;74.20;99219.28;4943179;29;20977;-82
2021/01/31 11:16:33;;;;;;;19.10;11.13;;;;;;;1.94;74.82;99228.75;4941526;29;20051;-83
2021/01/31 11:19:00;;;;;;;18.67;11.45;;;;;;;1.95;74.48;99223.47;4932177;29;20115;-84
2021/01/31 11:21:27;;;;;;;18.17;11.32;;;;;;;1.95;74.33;99225.25;4956056;29;20131;-83
2021/01/31 11:23:55;;;;;;;18.90;11.35;;;;;;;1.91;74.20;99218.38;4959612;28;20063;-83
2021/01/31 11:26:23;;;;;;;21.00;12.48;;;;;;;1.99;75.39;99221.63;4959754;28;20054;-81
2021/01/31 11:28:50;;;;;;;18.40;11.20;;;;;;;2.09;73.94;99217.81;4959885;28;20051;-82
2021/01/31 11:31:17;;;;;;;20.33;11.88;;;;;;;2.09;74.14;99218.69;4956928;29;20075;-81
2021/01/31 11:33:44;;;;;;;20.67;11.60;;;;;;;1.97;73.76;99221.69;4952986;29;20163;-82
2021/01/31 11:36:13;;;;;;;20.83;12.07;;;;;;;1.93;74.25;99203.53;4953366;29;20162;-83
2021/01/31 11:38:43;;;;;;;21.27;11.75;;;;;;;1.87;74.57;99220.25;4941736;29;20165;-82
2021/01/31 11:41:15;;;;;;;20.42;11.88;;;;;;;1.79;75.09;99214.41;4947779;29;20079;-80
2021/01/31 11:43:44;;;;;;;21.15;11.63;;;;;;;1.84;75.18;99217.75;4957758;29;20103;-81
2021/01/31 11:46:17;;;;;;;18.55;11.88;;;;;;;1.89;75.52;99208.00;4955382;29;20078;-80
2021/01/31 11:48:44;;;;;;;19.23;11.63;;;;;;;2.07;74.52;99206.56;4948463;29;20052;-81
2021/01/31 11:51:13;;;;;;;18.05;11.65;;;;;;;2.04;74.44;99199.72;4959070;28;20071;-82
2021/01/31 11:53:44;;;;;;;19.20;11.60;;;;;;;2.09;74.38;99202.16;4958791;29;20048;-82
2021/01/31 11:56:10;;;;;;;21.42;12.02;;;;;;;2.11;74.20;99189.91;4941632;29;20048;-85